Terminal Aerodrome Forecast
Issued by NWS

Home | Current Version | Previous Version | Text Only | Print | Product List | Glossary On
Versions: 1 2 3 4 5 6 7 8 9 10 11 12 13 14 15 16 17 18 19 20 21 22
000
FTUS43 KLSX 061136
TAFSUS
TAF
KSUS 061136Z 0612/0712 VRB03KT 5SM HZ BKN250
     FM061400 18008KT P6SM FEW040 BKN250
     FM061800 19010G18KT P6SM VCTS SCT040CB SCT250
     FM070000 20006KT P6SM VCTS SCT040CB BKN250
     FM070600 22008KT 5SM -TSRA BKN040CB=

USA.gov is the U.S. government's official web portal to all federal, state and local government web resources and services.